createdAt,value
2018-06-25T00:00:14.821Z,1013.34
2018-06-25T00:01:14.828Z,1013.40
2018-06-25T00:02:14.788Z,1013.40
2018-06-25T00:03:14.769Z,1013.43
2018-06-25T00:04:14.753Z,1013.43
2018-06-25T00:05:14.741Z,1013.46
2018-06-25T00:06:14.718Z,1013.44
2018-06-25T00:07:14.713Z,1013.46
2018-06-25T00:08:14.685Z,1013.46
2018-06-25T00:09:14.666Z,1013.45
2018-06-25T00:10:14.647Z,1013.46
2018-06-25T00:11:14.630Z,1013.46
2018-06-25T00:12:14.639Z,1013.44
2018-06-25T00:13:14.597Z,1013.38
2018-06-25T00:14:14.579Z,1013.37
2018-06-25T00:15:14.562Z,1013.37
2018-06-25T00:16:14.547Z,1013.37
2018-06-25T00:17:14.527Z,1013.40
2018-06-25T00:18:14.523Z,1013.40
2018-06-25T00:19:14.493Z,1013.37
2018-06-25T00:20:14.475Z,1013.37
2018-06-25T00:21:14.461Z,1013.35
2018-06-25T00:22:14.440Z,1013.34
2018-06-25T00:23:14.441Z,1013.37
2018-06-25T00:24:14.406Z,1013.36
2018-06-25T00:25:14.387Z,1013.36
2018-06-25T00:26:14.374Z,1013.37
2018-06-25T00:27:14.354Z,1013.33
2018-06-25T00:28:14.337Z,1013.30
2018-06-25T00:29:14.331Z,1013.26
2018-06-25T00:30:14.300Z,1013.23
2018-06-25T00:31:14.287Z,1013.23
2018-06-25T00:32:14.267Z,1013.21
2018-06-25T00:33:14.249Z,1013.19
2018-06-25T00:34:14.261Z,1013.21
2018-06-25T00:35:14.209Z,1013.20
2018-06-25T00:36:14.198Z,1013.23
2018-06-25T00:37:14.179Z,1013.26
2018-06-25T00:38:14.162Z,1013.28
2018-06-25T00:39:14.147Z,1013.27
2018-06-25T00:40:14.140Z,1013.26
2018-06-25T00:41:14.110Z,1013.23
2018-06-25T00:42:14.094Z,1013.28
2018-06-25T00:43:14.078Z,1013.24
2018-06-25T00:44:14.059Z,1013.24
2018-06-25T00:45:14.053Z,1013.27
2018-06-25T00:46:14.024Z,1013.28
2018-06-25T00:47:14.004Z,1013.29
2018-06-25T00:48:13.988Z,1013.33
2018-06-25T00:49:13.971Z,1013.40
2018-06-25T00:50:13.976Z,1013.40
2018-06-25T00:51:13.936Z,1013.34
2018-06-25T00:52:13.919Z,1013.35
2018-06-25T00:53:13.901Z,1013.34
2018-06-25T00:54:13.884Z,1013.33
2018-06-25T00:55:13.867Z,1013.32
2018-06-25T00:56:13.861Z,1013.35
2018-06-25T00:57:13.834Z,1013.34
2018-06-25T00:58:13.815Z,1013.34
2018-06-25T00:59:13.799Z,1013.35
2018-06-25T01:00:13.782Z,1013.35
2018-06-25T01:01:13.778Z,1013.41
2018-06-25T01:02:13.746Z,1013.39
2018-06-25T01:03:13.727Z,1013.38
2018-06-25T01:04:13.710Z,1013.36
2018-06-25T01:05:13.693Z,1013.35
2018-06-25T01:06:13.675Z,1013.39
2018-06-25T01:07:13.669Z,1013.37
2018-06-25T01:08:13.641Z,1013.41
2018-06-25T01:09:13.622Z,1013.36
2018-06-25T01:10:13.607Z,1013.39
2018-06-25T01:11:13.588Z,1013.44
2018-06-25T01:12:13.589Z,1013.44
2018-06-25T01:13:13.553Z,1013.46
2018-06-25T01:14:13.537Z,1013.47
2018-06-25T01:15:13.519Z,1013.48
2018-06-25T01:16:13.502Z,1013.49
2018-06-25T01:17:13.483Z,1013.49
2018-06-25T01:18:13.479Z,1013.51
2018-06-25T01:19:13.448Z,1013.53
2018-06-25T01:20:13.432Z,1013.51
2018-06-25T01:21:13.414Z,1013.54
2018-06-25T01:22:13.397Z,1013.54
2018-06-25T01:23:13.392Z,1013.54
2018-06-25T01:24:13.362Z,1013.48
2018-06-25T01:25:13.342Z,1013.46
2018-06-25T01:26:13.329Z,1013.45
2018-06-25T01:27:13.309Z,1013.43
2018-06-25T01:28:13.308Z,1013.40
2018-06-25T01:29:13.276Z,1013.40
2018-06-25T01:30:13.258Z,1013.38
2018-06-25T01:31:13.239Z,1013.37
2018-06-25T01:32:13.222Z,1013.38
2018-06-25T01:33:13.204Z,1013.37
2018-06-25T01:34:13.199Z,1013.36
2018-06-25T01:35:13.169Z,1013.38
2018-06-25T01:36:13.151Z,1013.35
2018-06-25T01:37:13.133Z,1013.29
2018-06-25T01:38:13.116Z,1013.31
2018-06-25T01:39:13.125Z,1013.30
2018-06-25T01:40:13.083Z,1013.25
2018-06-25T01:41:13.064Z,1013.27
2018-06-25T01:42:13.052Z,1013.26
2018-06-25T01:43:13.029Z,1013.23
2018-06-25T01:44:13.014Z,1013.25
2018-06-25T01:45:13.005Z,1013.31
2018-06-25T01:46:12.977Z,1013.30
2018-06-25T01:47:12.959Z,1013.30
2018-06-25T01:48:12.943Z,1013.33
2018-06-25T01:49:12.925Z,1013.30
2018-06-25T01:50:12.918Z,1013.30
2018-06-25T01:51:12.889Z,1013.28
2018-06-25T01:52:12.873Z,1013.28
2018-06-25T01:53:12.853Z,1013.30
2018-06-25T01:54:12.838Z,1013.28
2018-06-25T01:55:12.843Z,1013.26
2018-06-25T01:56:12.802Z,1013.26
2018-06-25T01:57:12.787Z,1013.32
2018-06-25T01:58:12.765Z,1013.32
2018-06-25T01:59:12.749Z,1013.33
2018-06-25T02:00:12.732Z,1013.34
2018-06-25T02:01:12.731Z,1013.35
2018-06-25T02:02:12.697Z,1013.35
2018-06-25T02:03:12.680Z,1013.36
2018-06-25T02:04:12.662Z,1013.39
2018-06-25T02:05:12.644Z,1013.42
2018-06-25T02:06:12.626Z,1013.41
2018-06-25T02:07:12.620Z,1013.39
2018-06-25T02:08:12.592Z,1013.42
2018-06-25T02:09:12.573Z,1013.38
2018-06-25T02:10:12.556Z,1013.35
2018-06-25T02:11:12.539Z,1013.32
2018-06-25T02:12:12.532Z,1013.32
2018-06-25T02:13:12.503Z,1013.31
2018-06-25T02:14:12.486Z,1013.33
2018-06-25T02:15:12.469Z,1013.37
2018-06-25T02:16:12.452Z,1013.33
2018-06-25T02:17:12.449Z,1013.38
2018-06-25T02:18:12.418Z,1013.34
2018-06-25T02:19:12.399Z,1013.37
2018-06-25T02:20:12.381Z,1013.34
2018-06-25T02:21:12.364Z,1013.33
2018-06-25T02:22:12.346Z,1013.33
2018-06-25T02:23:12.340Z,1013.31
2018-06-25T02:24:12.313Z,1013.32
2018-06-25T02:25:12.293Z,1013.32
2018-06-25T02:26:12.276Z,1013.35
2018-06-25T02:27:12.258Z,1013.38
2018-06-25T02:28:12.267Z,1013.37
2018-06-25T02:29:12.223Z,1013.31
2018-06-25T02:30:12.206Z,1013.35
2018-06-25T02:31:12.189Z,1013.39
2018-06-25T02:32:12.173Z,1013.40
2018-06-25T02:33:12.155Z,1013.38
2018-06-25T02:34:12.146Z,1013.39
2018-06-25T02:35:12.118Z,1013.39
2018-06-25T02:36:12.102Z,1013.42
2018-06-25T02:37:12.084Z,1013.42
2018-06-25T02:38:12.066Z,1013.42
2018-06-25T02:39:12.060Z,1013.43
2018-06-25T02:40:12.033Z,1013.40
2018-06-25T02:41:12.013Z,1013.36
2018-06-25T02:42:11.998Z,1013.35
2018-06-25T02:43:11.980Z,1013.35
2018-06-25T02:44:11.984Z,1013.34
2018-06-25T02:45:11.945Z,1013.39
2018-06-25T02:46:11.927Z,1013.34
2018-06-25T02:47:11.913Z,1013.36
2018-06-25T02:48:11.891Z,1013.33
2018-06-25T02:49:11.872Z,1013.33
2018-06-25T02:50:11.866Z,1013.34
2018-06-25T02:51:11.837Z,1013.28
2018-06-25T02:52:11.822Z,1013.36
2018-06-25T02:53:11.804Z,1013.32
2018-06-25T02:54:11.786Z,1013.34
2018-06-25T02:55:11.789Z,1013.33
2018-06-25T02:56:11.753Z,1013.32
2018-06-25T02:57:11.733Z,1013.36
2018-06-25T02:58:11.716Z,1013.36
2018-06-25T02:59:11.761Z,1013.32
2018-06-25T03:00:11.681Z,1013.32
2018-06-25T03:01:11.674Z,1013.31
2018-06-25T03:02:11.646Z,1013.30
2018-06-25T09:21:19.205Z,1015.54
2018-06-25T09:22:19.167Z,1015.55
2018-06-25T09:23:19.147Z,1015.54
2018-06-25T09:24:19.134Z,1015.64
2018-06-25T09:25:19.112Z,1015.60
2018-06-25T09:26:19.097Z,1015.56
2018-06-25T09:27:19.099Z,1015.56
2018-06-25T09:28:19.064Z,1015.54
2018-06-25T09:29:19.048Z,1015.53
2018-06-25T09:30:19.033Z,1015.53
2018-06-25T09:31:19.020Z,1015.55
2018-06-25T09:32:19.002Z,1015.55
2018-06-25T09:33:19.003Z,1015.53
2018-06-25T09:34:18.972Z,1015.51
2018-06-25T09:35:18.984Z,1015.51
2018-06-25T09:36:18.944Z,1015.53
2018-06-25T09:37:18.930Z,1015.51
2018-06-25T09:38:18.915Z,1015.48
2018-06-25T09:39:18.923Z,1015.47
2018-06-25T09:40:18.886Z,1015.53
2018-06-25T09:41:18.950Z,1015.56
2018-06-25T09:42:18.858Z,1015.60
2018-06-25T09:43:18.843Z,1015.53
2018-06-25T09:44:18.830Z,1015.53
2018-06-25T09:45:18.837Z,1015.59
2018-06-25T09:46:18.809Z,1015.58
2018-06-25T09:47:18.787Z,1015.60
2018-06-25T09:48:18.777Z,1015.61
2018-06-25T09:49:18.758Z,1015.65
2018-06-25T09:50:18.743Z,1015.63
2018-06-25T09:51:18.747Z,1015.61
2018-06-25T09:52:18.716Z,1015.60
2018-06-25T09:53:18.701Z,1015.60
2018-06-25T09:54:18.687Z,1015.59
2018-06-25T09:55:18.676Z,1015.61
2018-06-25T09:56:18.660Z,1015.64
2018-06-25T09:57:18.667Z,1015.61
2018-06-25T09:58:18.630Z,1015.60
2018-06-25T09:59:18.617Z,1015.59
2018-06-25T10:00:18.603Z,1015.56
2018-06-25T10:01:18.591Z,1015.58
2018-06-25T10:02:18.576Z,1015.57
2018-06-25T10:03:18.579Z,1015.56
2018-06-25T10:04:18.551Z,1015.57
2018-06-25T10:05:18.533Z,1015.57
2018-06-25T10:06:18.519Z,1015.61
2018-06-25T10:07:18.506Z,1015.58
2018-06-25T10:08:18.491Z,1015.56
2018-06-25T10:09:18.498Z,1015.58
2018-06-25T10:10:18.464Z,1015.60
2018-06-25T10:11:18.447Z,1015.60
2018-06-25T10:12:18.434Z,1015.63
2018-06-25T10:13:18.419Z,1015.66
2018-06-25T10:14:18.404Z,1015.66
2018-06-25T10:15:18.413Z,1015.70
2018-06-25T10:16:18.375Z,1015.70
2018-06-25T10:17:18.362Z,1015.68
2018-06-25T10:18:18.351Z,1015.72
2018-06-25T10:19:18.336Z,1015.67
2018-06-25T10:20:18.320Z,1015.70
2018-06-25T10:21:18.338Z,1015.70
2018-06-25T10:22:18.289Z,1015.67
2018-06-25T10:23:18.276Z,1015.66
2018-06-25T10:24:18.262Z,1015.68
2018-06-25T10:25:18.247Z,1015.70
2018-06-25T10:26:18.234Z,1015.76
2018-06-25T10:27:18.236Z,1015.72
2018-06-25T10:28:18.207Z,1015.67
2018-06-25T10:29:18.191Z,1015.67
2018-06-25T10:30:18.178Z,1015.68
2018-06-25T10:31:18.163Z,1015.69
2018-06-25T10:32:18.151Z,1015.67
2018-06-25T10:33:18.161Z,1015.65
2018-06-25T10:34:18.122Z,1015.70
2018-06-25T10:35:18.120Z,1015.68
2018-06-25T10:36:18.095Z,1015.65
2018-06-25T10:37:18.083Z,1015.68
2018-06-25T10:38:18.068Z,1015.64
2018-06-25T10:39:18.071Z,1015.63
2018-06-25T10:40:18.041Z,1015.61
2018-06-25T10:41:18.026Z,1015.65
2018-06-25T10:42:18.072Z,1015.66
2018-06-25T10:43:18.001Z,1015.65
2018-06-25T10:44:17.986Z,1015.68
2018-06-25T10:45:17.987Z,1015.72
2018-06-25T10:46:17.958Z,1015.67
2018-06-25T10:47:17.943Z,1015.67
2018-06-25T10:48:17.930Z,1015.70
2018-06-25T10:49:17.915Z,1015.69
2018-06-25T10:50:17.903Z,1015.70
2018-06-25T10:51:17.912Z,1015.75
2018-06-25T10:52:17.876Z,1015.71
2018-06-25T10:53:17.858Z,1015.70
2018-06-25T10:54:17.845Z,1015.72
2018-06-25T10:55:17.830Z,1015.74
2018-06-25T10:56:17.816Z,1015.78
2018-06-25T10:57:17.818Z,1015.74
2018-06-25T10:58:17.787Z,1015.71
2018-06-25T10:59:17.772Z,1015.70
2018-06-25T11:00:17.988Z,1015.74
2018-06-25T11:01:17.787Z,1015.74
2018-06-25T11:02:17.730Z,1015.75
2018-06-25T11:03:17.733Z,1015.74
2018-06-25T11:04:17.702Z,1015.73
2018-06-25T11:05:17.687Z,1015.80
2018-06-25T11:06:17.672Z,1015.76
2018-06-25T11:07:17.761Z,1015.79
2018-06-25T11:08:17.644Z,1015.77
2018-06-25T11:09:17.651Z,1015.79
2018-06-25T11:10:17.616Z,1015.75
2018-06-25T11:11:17.605Z,1015.74
2018-06-25T11:12:17.589Z,1015.70
2018-06-25T11:13:17.574Z,1015.72
2018-06-25T11:14:17.562Z,1015.75
2018-06-25T11:15:17.568Z,1015.73
2018-06-25T11:16:17.537Z,1015.76
2018-06-25T11:17:17.521Z,1015.81
2018-06-25T11:18:17.505Z,1015.77
2018-06-25T11:19:17.492Z,1015.71
2018-06-25T11:20:17.479Z,1015.72
2018-06-25T11:21:17.482Z,1015.63
2018-06-25T11:22:17.455Z,1015.68
2018-06-25T11:23:17.439Z,1015.76
2018-06-25T11:24:17.428Z,1015.69
2018-06-25T11:25:17.413Z,1015.57
2018-06-25T11:26:17.401Z,1015.55
2018-06-25T11:27:17.478Z,1015.57
2018-06-25T11:28:17.377Z,1015.57
2018-06-25T11:29:17.367Z,1015.55
2018-06-25T11:30:17.351Z,1015.51
2018-06-25T11:31:17.339Z,1015.54
2018-06-25T11:32:17.328Z,1015.52
2018-06-25T11:33:17.329Z,1015.51
2018-06-25T11:34:17.302Z,1015.56
2018-06-25T11:35:17.288Z,1015.54
2018-06-25T11:36:17.278Z,1015.55
2018-06-25T11:37:17.263Z,1015.54
2018-06-25T11:38:17.251Z,1015.54
2018-06-25T11:39:17.253Z,1015.60
2018-06-25T11:40:17.226Z,1015.55
2018-06-25T11:41:17.212Z,1015.56
2018-06-25T11:42:17.201Z,1015.58
2018-06-25T11:43:17.188Z,1015.62
2018-06-25T11:44:17.174Z,1015.65
2018-06-25T11:45:17.183Z,1015.57
2018-06-25T11:46:17.149Z,1015.63
2018-06-25T11:47:17.139Z,1015.59
2018-06-25T11:48:17.130Z,1015.60
2018-06-25T11:49:17.113Z,1015.58
2018-06-25T11:50:17.100Z,1015.58
2018-06-25T11:51:17.109Z,1015.59
2018-06-25T11:52:17.077Z,1015.66
2018-06-25T11:53:17.064Z,1015.58
2018-06-25T11:54:17.051Z,1015.56
2018-06-25T11:55:17.043Z,1015.54
2018-06-25T11:56:17.077Z,1015.61
2018-06-25T11:57:17.031Z,1015.59
2018-06-25T11:58:17.002Z,1015.61
2018-06-25T11:59:16.989Z,1015.66
2018-06-25T12:00:16.979Z,1015.63
2018-06-25T12:01:16.967Z,1015.72
2018-06-25T12:02:16.955Z,1015.72
2018-06-25T12:03:17.220Z,1015.72
2018-06-25T12:04:16.928Z,1015.70
2018-06-25T12:05:16.915Z,1015.73
2018-06-25T12:06:16.900Z,1015.69
2018-06-25T12:07:16.890Z,1015.70
2018-06-25T12:08:16.877Z,1015.73
2018-06-25T12:09:16.881Z,1015.78
2018-06-25T12:10:16.850Z,1015.76
2018-06-25T12:11:16.837Z,1015.79
2018-06-25T12:12:16.882Z,1015.79
2018-06-25T12:13:16.813Z,1015.76
2018-06-25T12:14:16.825Z,1015.74
2018-06-25T12:15:16.804Z,1015.79
2018-06-25T12:16:16.772Z,1015.75
2018-06-25T12:17:16.760Z,1015.75
2018-06-25T12:18:16.744Z,1015.73
2018-06-25T12:19:16.734Z,1015.75
2018-06-25T12:20:16.721Z,1015.78
2018-06-25T12:21:16.727Z,1015.77
2018-06-25T12:22:16.693Z,1015.77
2018-06-25T12:23:16.678Z,1015.81
2018-06-25T12:24:16.666Z,1015.80
2018-06-25T12:25:16.652Z,1015.76
2018-06-25T12:26:16.639Z,1015.79
2018-06-25T12:27:16.642Z,1015.80
2018-06-25T12:28:16.612Z,1015.79
2018-06-25T12:29:16.599Z,1015.79
2018-06-25T12:30:16.588Z,1015.74
2018-06-25T12:31:16.580Z,1015.79
2018-06-25T12:32:16.568Z,1015.72
2018-06-25T12:33:16.561Z,1015.73
2018-06-25T12:34:16.531Z,1015.74
2018-06-25T12:35:16.518Z,1015.70
2018-06-25T12:36:16.503Z,1015.70
2018-06-25T12:37:16.490Z,1015.67
2018-06-25T12:38:16.476Z,1015.64
2018-06-25T12:39:16.486Z,1015.67
2018-06-25T12:40:16.448Z,1015.64
2018-06-25T12:41:16.434Z,1015.64
2018-06-25T12:42:16.420Z,1015.66
2018-06-25T12:43:16.418Z,1015.62
2018-06-25T12:44:16.396Z,1015.64
2018-06-25T12:45:16.397Z,1015.65
2018-06-25T12:46:16.365Z,1015.67
2018-06-25T12:47:16.351Z,1015.69
2018-06-25T12:48:16.383Z,1015.69
2018-06-25T12:49:16.322Z,1015.71
2018-06-25T12:50:16.310Z,1015.76
2018-06-25T12:51:16.312Z,1015.76
2018-06-25T12:52:16.282Z,1015.77
2018-06-25T12:53:16.266Z,1015.75
2018-06-25T12:54:16.254Z,1015.75
2018-06-25T12:55:16.238Z,1015.79
2018-06-25T12:56:16.227Z,1015.77
2018-06-25T12:57:16.234Z,1015.82
2018-06-25T12:58:16.204Z,1015.79
2018-06-25T12:59:16.184Z,1015.85
2018-06-25T13:00:16.170Z,1015.83
2018-06-25T13:01:16.156Z,1015.84
2018-06-25T13:02:16.143Z,1015.85
2018-06-25T13:03:16.146Z,1015.82
2018-06-25T13:04:16.116Z,1015.80
2018-06-25T13:05:16.104Z,1015.86
2018-06-25T13:06:16.089Z,1015.84
2018-06-25T13:07:16.076Z,1015.84
2018-06-25T13:08:16.063Z,1015.84
2018-06-25T13:09:16.066Z,1015.83
2018-06-25T13:10:16.039Z,1015.87
2018-06-25T13:11:16.027Z,1015.83
2018-06-25T13:12:16.011Z,1015.80
2018-06-25T13:13:15.996Z,1015.84
2018-06-25T13:14:15.983Z,1015.79
2018-06-25T13:15:15.993Z,1015.80
2018-06-25T13:16:15.958Z,1015.82
2018-06-25T13:17:15.945Z,1015.85
2018-06-25T13:18:15.994Z,1015.81
2018-06-25T13:19:15.919Z,1015.81
2018-06-25T13:20:15.907Z,1015.87
2018-06-25T13:21:15.909Z,1015.88
2018-06-25T13:22:15.880Z,1015.86
2018-06-25T13:23:15.868Z,1015.90
2018-06-25T13:24:15.854Z,1015.87
2018-06-25T13:25:15.841Z,1015.89
2018-06-25T13:26:15.828Z,1015.91
2018-06-25T13:27:15.831Z,1015.86
2018-06-25T13:28:15.803Z,1015.91
2018-06-25T13:29:15.790Z,1015.86
2018-06-25T13:30:15.777Z,1015.84
2018-06-25T13:31:15.858Z,1015.81
2018-06-25T13:32:15.754Z,1015.81
2018-06-25T13:33:15.755Z,1015.82
2018-06-25T13:34:15.724Z,1015.82
2018-06-25T13:35:15.713Z,1015.80
2018-06-25T13:36:15.700Z,1015.81
2018-06-25T13:37:15.686Z,1015.82
2018-06-25T13:38:15.728Z,1015.84
2018-06-25T13:39:15.678Z,1015.80
2018-06-25T13:40:15.651Z,1015.82
2018-06-25T13:41:15.635Z,1015.84
2018-06-25T13:42:15.625Z,1015.81
2018-06-25T13:43:15.610Z,1015.83
2018-06-25T13:44:15.598Z,1015.77
2018-06-25T13:45:15.601Z,1015.80
2018-06-25T13:46:15.571Z,1015.86
2018-06-25T13:47:15.558Z,1015.87
2018-06-25T13:48:15.605Z,1015.83
2018-06-25T13:49:15.533Z,1015.82
2018-06-25T13:50:15.520Z,1015.80
2018-06-25T13:51:15.527Z,1015.83
2018-06-25T13:52:15.493Z,1015.83
2018-06-25T13:53:15.481Z,1015.85
2018-06-25T13:54:15.467Z,1015.80
2018-06-25T13:55:15.456Z,1015.81
2018-06-25T13:56:15.442Z,1015.84
2018-06-25T13:57:15.457Z,1015.83
2018-06-25T13:58:15.415Z,1015.82
2018-06-25T13:59:15.401Z,1015.82
2018-06-25T14:00:15.393Z,1015.80
2018-06-25T14:01:15.378Z,1015.80
2018-06-25T14:02:15.362Z,1015.79
2018-06-25T14:03:15.369Z,1015.80
2018-06-25T14:04:15.340Z,1015.77
2018-06-25T14:05:15.327Z,1015.75
2018-06-25T14:06:15.315Z,1015.77
2018-06-25T14:07:15.303Z,1015.79
2018-06-25T14:08:15.291Z,1015.78
2018-06-25T14:09:15.299Z,1015.79
2018-06-25T14:10:15.264Z,1015.82
2018-06-25T14:11:15.252Z,1015.77
2018-06-25T14:12:15.240Z,1015.78
2018-06-25T14:13:15.227Z,1015.75
2018-06-25T14:14:15.214Z,1015.79
2018-06-25T14:15:15.224Z,1015.78
2018-06-25T14:16:15.215Z,1015.76
2018-06-25T14:17:15.177Z,1015.78
2018-06-25T14:18:15.168Z,1015.77
2018-06-25T14:19:15.152Z,1015.75
2018-06-25T14:20:15.140Z,1015.76
2018-06-25T14:21:15.143Z,1015.83
2018-06-25T14:22:15.114Z,1015.79
2018-06-25T14:23:15.102Z,1015.87
2018-06-25T14:24:15.092Z,1015.83
2018-06-25T14:25:15.076Z,1015.82
2018-06-25T14:26:15.065Z,1015.83
2018-06-25T14:27:15.075Z,1015.82
2018-06-25T14:28:15.109Z,1015.76
2018-06-25T14:29:15.028Z,1015.76
2018-06-25T14:30:15.017Z,1015.77
2018-06-25T14:31:15.005Z,1015.72
2018-06-25T14:32:14.996Z,1015.72
2018-06-25T14:33:14.997Z,1015.73
2018-06-25T14:34:14.966Z,1015.75
2018-06-25T14:35:14.965Z,1015.79
2018-06-25T14:36:14.945Z,1015.78
2018-06-25T14:37:14.935Z,1015.81
2018-06-25T14:38:14.921Z,1015.90
2018-06-25T14:39:14.926Z,1015.80
2018-06-25T14:40:14.958Z,1015.82
2018-06-25T14:41:14.885Z,1015.85
2018-06-25T14:42:14.873Z,1015.79
2018-06-25T14:43:14.871Z,1015.75
2018-06-25T14:44:14.853Z,1015.89
2018-06-25T14:45:14.882Z,1015.95
2018-06-25T14:46:14.829Z,1016.05
2018-06-25T14:47:14.820Z,1015.95
2018-06-25T14:48:14.841Z,1016.05
2018-06-25T14:49:14.801Z,1015.92
2018-06-25T14:50:14.789Z,1015.95
2018-06-25T14:51:14.796Z,1015.64
2018-06-25T14:52:14.780Z,1015.63
2018-06-25T14:53:14.764Z,1015.62
2018-06-25T14:54:14.752Z,1015.82
2018-06-25T14:55:14.743Z,1015.90
2018-06-25T14:56:14.736Z,1015.88
2018-06-25T14:57:14.739Z,1015.76
2018-06-25T14:58:14.714Z,1015.63
2018-06-25T14:59:14.766Z,1015.73
2018-06-25T15:00:14.697Z,1015.67
2018-06-25T15:01:14.687Z,1015.64
2018-06-25T15:02:14.679Z,1015.62
2018-06-25T15:03:14.693Z,1015.58
2018-06-25T15:04:14.667Z,1015.64
2018-06-25T15:05:14.654Z,1015.73
2018-06-25T15:06:14.645Z,1015.75
2018-06-25T15:07:14.636Z,1015.54
2018-06-25T15:08:14.630Z,1015.81
2018-06-25T15:09:14.636Z,1015.79
2018-06-25T15:10:14.609Z,1015.83
2018-06-25T15:11:14.605Z,1015.87
2018-06-25T15:12:14.594Z,1015.76
2018-06-25T15:13:14.643Z,1015.85
2018-06-25T15:14:14.578Z,1015.81
2018-06-25T15:15:14.589Z,1015.83
2018-06-25T15:16:14.569Z,1015.62
2018-06-25T15:17:14.556Z,1015.79
2018-06-25T15:18:14.548Z,1015.63
2018-06-25T15:19:14.542Z,1015.77
2018-06-25T15:20:14.537Z,1015.73
2018-06-25T15:21:14.549Z,1015.47
2018-06-25T15:22:14.526Z,1015.46
2018-06-25T15:23:14.514Z,1015.44
2018-06-25T15:24:14.507Z,1015.42
2018-06-25T15:25:14.500Z,1015.45
2018-06-25T15:26:14.490Z,1015.44
2018-06-25T15:27:14.505Z,1015.65
2018-06-25T15:28:14.477Z,1015.58
2018-06-25T15:29:14.474Z,1015.43
2018-06-25T15:30:14.465Z,1015.39
2018-06-25T15:31:14.457Z,1015.34
2018-06-25T15:32:14.462Z,1015.32
2018-06-25T15:33:14.457Z,1015.27
2018-06-25T15:34:14.440Z,1015.27
2018-06-25T15:35:14.424Z,1015.31
2018-06-25T15:36:14.416Z,1015.25
2018-06-25T15:37:14.407Z,1015.25
2018-06-25T15:38:14.399Z,1015.23
2018-06-25T15:39:14.405Z,1015.28
2018-06-25T15:40:14.382Z,1015.22
2018-06-25T15:41:14.374Z,1015.22
2018-06-25T15:42:14.364Z,1015.27
2018-06-25T15:43:14.354Z,1015.27
2018-06-25T15:44:14.345Z,1015.27
2018-06-25T15:45:14.350Z,1015.29
2018-06-25T15:46:14.328Z,1015.28
2018-06-25T15:47:14.315Z,1015.26
2018-06-25T15:48:14.307Z,1015.29
2018-06-25T15:49:14.295Z,1015.32
2018-06-25T15:50:14.283Z,1015.28
2018-06-25T15:51:14.296Z,1015.40
2018-06-25T15:52:14.263Z,1015.55
2018-06-25T15:53:14.252Z,1015.64
2018-06-25T15:54:14.242Z,1015.61
2018-06-25T15:55:14.232Z,1015.61
2018-06-25T15:56:14.221Z,1015.41
2018-06-25T15:57:14.234Z,1015.34
2018-06-25T15:58:14.202Z,1015.32
2018-06-25T15:59:14.193Z,1015.30
2018-06-25T16:00:14.183Z,1015.33
2018-06-25T16:01:14.174Z,1015.35
2018-06-25T16:02:14.164Z,1015.62
2018-06-25T16:03:14.172Z,1015.64
2018-06-25T16:04:14.146Z,1015.67
2018-06-25T16:05:14.135Z,1015.68
2018-06-25T16:06:14.127Z,1015.34
2018-06-25T16:07:14.119Z,1015.31
2018-06-25T16:08:14.110Z,1015.25
2018-06-25T16:09:14.116Z,1015.22
2018-06-25T16:10:14.157Z,1015.24
2018-06-25T16:11:14.084Z,1015.21
2018-06-25T16:12:14.077Z,1015.22
2018-06-25T16:13:14.065Z,1015.16
2018-06-25T16:14:14.115Z,1015.12
2018-06-25T16:15:14.070Z,1015.18
2018-06-25T16:16:14.038Z,1015.14
2018-06-25T16:17:14.029Z,1015.10
2018-06-25T16:18:14.021Z,1015.13
2018-06-25T16:19:14.013Z,1015.08
2018-06-25T16:20:14.002Z,1015.07
2018-06-25T16:21:14.008Z,1015.10
2018-06-25T16:22:13.980Z,1015.06
2018-06-25T16:23:13.971Z,1015.09
2018-06-25T16:24:13.961Z,1015.10
2018-06-25T16:25:13.950Z,1015.11
2018-06-25T16:26:13.940Z,1015.11
2018-06-25T16:27:13.947Z,1015.12
2018-06-25T16:28:13.923Z,1015.11
2018-06-25T16:29:13.908Z,1015.11
2018-06-25T16:30:13.899Z,1015.13
2018-06-25T16:31:13.891Z,1015.11
2018-06-25T16:32:13.878Z,1015.05
2018-06-25T16:33:13.891Z,1015.09
2018-06-25T16:34:13.922Z,1015.07
2018-06-25T16:35:13.848Z,1015.02
2018-06-25T16:36:13.836Z,1014.99
2018-06-25T16:37:13.824Z,1015.02
2018-06-25T16:38:13.812Z,1014.99
2018-06-25T16:39:13.826Z,1015.00
2018-06-25T16:40:13.792Z,1015.00
2018-06-25T16:41:13.781Z,1014.99
2018-06-25T16:42:13.771Z,1014.99
2018-06-25T16:43:13.763Z,1015.00
2018-06-25T16:44:13.751Z,1015.01
2018-06-25T16:45:13.754Z,1015.36
2018-06-25T16:46:13.727Z,1015.17
2018-06-25T16:47:13.718Z,1014.99
2018-06-25T16:48:13.710Z,1014.99
2018-06-25T16:49:13.696Z,1014.95
2018-06-25T16:50:13.690Z,1014.97
2018-06-25T16:51:13.696Z,1014.99
2018-06-25T16:52:13.667Z,1014.94
2018-06-25T16:53:13.653Z,1014.93
2018-06-25T16:54:13.641Z,1014.92
2018-06-25T16:55:13.633Z,1014.91
2018-06-25T16:56:13.622Z,1014.93
2018-06-25T16:57:13.627Z,1014.93
2018-06-25T16:58:13.598Z,1014.90
2018-06-25T16:59:13.587Z,1014.89
2018-06-25T17:00:13.577Z,1014.88
2018-06-25T17:01:13.563Z,1014.86
2018-06-25T17:02:13.554Z,1014.88
2018-06-25T17:03:13.559Z,1014.86
2018-06-25T17:04:13.531Z,1014.86
2018-06-25T17:05:13.518Z,1014.90
2018-06-25T17:06:13.506Z,1014.86
2018-06-25T17:07:13.495Z,1014.86
2018-06-25T17:08:13.484Z,1014.85
2018-06-25T17:09:13.511Z,1014.85
2018-06-25T17:10:13.460Z,1014.82
2018-06-25T17:11:13.456Z,1014.79
2018-06-25T17:12:13.436Z,1014.83
2018-06-25T17:13:13.424Z,1014.79
2018-06-25T17:14:13.412Z,1014.82
2018-06-25T17:15:13.419Z,1014.83
2018-06-25T17:16:13.388Z,1014.79
2018-06-25T17:17:13.374Z,1014.72
2018-06-25T17:18:13.363Z,1014.78
2018-06-25T17:19:13.351Z,1014.76
2018-06-25T17:20:13.339Z,1014.79
2018-06-25T17:21:13.344Z,1014.79
2018-06-25T17:22:13.315Z,1014.83
2018-06-25T17:23:13.305Z,1014.81
2018-06-25T17:24:13.289Z,1014.80
2018-06-25T17:25:13.277Z,1014.81
2018-06-25T17:26:13.268Z,1014.76
2018-06-25T17:27:13.273Z,1014.80
2018-06-25T17:28:13.240Z,1014.85
2018-06-25T17:29:13.227Z,1014.81
2018-06-25T17:30:13.215Z,1014.77
2018-06-25T17:31:13.203Z,1014.78
2018-06-25T17:32:13.191Z,1014.75
2018-06-25T17:33:13.196Z,1014.72
2018-06-25T17:34:13.164Z,1014.71
2018-06-25T17:35:13.153Z,1014.68
2018-06-25T17:36:13.141Z,1014.72
2018-06-25T17:37:13.128Z,1014.74
2018-06-25T17:38:13.116Z,1014.79
2018-06-25T17:39:13.123Z,1014.79
2018-06-25T17:40:13.090Z,1014.75
2018-06-25T17:41:13.075Z,1014.72
2018-06-25T17:42:13.079Z,1014.73
2018-06-25T17:43:13.053Z,1014.71
2018-06-25T17:44:13.046Z,1014.72
2018-06-25T17:45:13.051Z,1014.75
2018-06-25T17:46:13.014Z,1014.73
2018-06-25T17:47:13.002Z,1014.72
2018-06-25T17:48:13.015Z,1014.70
2018-06-25T17:49:12.976Z,1014.72
2018-06-25T17:50:12.966Z,1014.76
2018-06-25T17:51:12.967Z,1014.79
2018-06-25T17:52:12.940Z,1014.86
2018-06-25T17:53:12.928Z,1014.82
2018-06-25T17:54:12.981Z,1014.82
2018-06-25T17:55:12.908Z,1014.81
2018-06-25T17:56:12.888Z,1014.81
2018-06-25T17:57:12.890Z,1014.77
2018-06-25T17:58:12.863Z,1014.79
2018-06-25T17:59:12.853Z,1014.90
2018-06-25T18:00:12.838Z,1014.92
2018-06-25T18:01:12.827Z,1014.83
2018-06-25T18:02:12.813Z,1014.81
2018-06-25T18:03:12.829Z,1014.81
2018-06-25T18:04:12.790Z,1014.81
2018-06-25T18:05:12.777Z,1014.88
2018-06-25T18:06:12.765Z,1014.92
2018-06-25T18:07:12.753Z,1014.92
2018-06-25T18:08:12.886Z,1014.87
2018-06-25T18:09:12.743Z,1014.87
2018-06-25T18:10:12.723Z,1014.91
2018-06-25T18:11:12.710Z,1014.84
2018-06-25T18:12:12.699Z,1014.85
2018-06-25T18:13:12.679Z,1014.81
2018-06-25T18:14:12.668Z,1014.83
2018-06-25T18:15:12.672Z,1014.84
2018-06-25T18:16:12.645Z,1014.82
2018-06-25T18:17:12.631Z,1014.82
2018-06-25T18:18:12.624Z,1014.78
2018-06-25T18:19:12.614Z,1014.78
2018-06-25T18:20:12.599Z,1014.77
2018-06-25T18:21:12.607Z,1014.76
2018-06-25T18:22:12.572Z,1014.77
2018-06-25T18:23:12.563Z,1014.74